CheckWX is a tool to help pilots better visualize weather data.  It is not intended as a substitute for an official pre-flight weather briefing.

06:39:18 UTC

KDKB METAR
De Kalb Taylor Municipal Airport
De Kalb, Illinois, USA
Current

44 mins ago

KDKB 140555Z AUTO 15005KT 10SM CLR 19/15 A3001 RMK AO2 T01910150 10257 20188 402700158
Observed
Jul-14 @ 05:55 UTC
Wind
  • 150° at 5 KTS
Visibility
10 SM
Flight Rules
VFR
Cloud Levels
  • Clear skies
Dewpoint
15°C / 59°F
Humidity
78%
Altimeter
30.01" Hg
Pressure
1016.22 hPa
Previous

1 hour ago

KDKB 140535Z AUTO 14007KT 10SM CLR 19/15 A3000 RMK AO2 T01940151
Observed
Jul-14 @ 05:35 UTC
Wind
  • 140° at 7 KTS
Visibility
10 SM
Flight Rules
VFR
Cloud Levels
  • Clear skies
Temperature
19°C / 66°F
Dewpoint
15°C / 59°F
Humidity
78%
Altimeter
30" Hg
Pressure
1015.92 hPa
Previous

1 hour ago

KDKB 140515Z AUTO 15006KT 10SM CLR 19/15 A3001 RMK AO2 T01900153
Observed
Jul-14 @ 05:15 UTC
Wind
  • 150° at 6 KTS
Visibility
10 SM
Flight Rules
VFR
Cloud Levels
  • Clear skies
Temperature
19°C / 66°F
Dewpoint
15°C / 59°F
Humidity
78%
Altimeter
30.01" Hg
Pressure
1016.22 hPa